sensor_id;sensor_type;location;lat;lon;timestamp;pressure;altitude;pressure_sealevel;temperature;humidity
11808;BME280;5961;42.640;23.380;2024-02-21T00:00:10;94655.47;;;6.04;100.00
11808;BME280;5961;42.640;23.380;2024-02-21T00:02:37;94656.78;;;6.07;100.00
11808;BME280;5961;42.640;23.380;2024-02-21T00:05:06;94663.72;;;6.17;100.00
11808;BME280;5961;42.640;23.380;2024-02-21T00:07:32;94665.50;;;6.21;100.00
11808;BME280;5961;42.640;23.380;2024-02-21T00:09:59;94655.31;;;6.15;100.00
11808;BME280;5961;42.640;23.380;2024-02-21T00:12:26;94640.22;;;6.01;100.00
11808;BME280;5961;42.640;23.380;2024-02-21T00:14:52;94647.06;;;6.02;100.00
11808;BME280;5961;42.640;23.380;2024-02-21T00:17:19;94655.88;;;6.12;100.00
11808;BME280;5961;42.640;23.380;2024-02-21T00:19:46;94651.19;;;6.08;100.00
11808;BME280;5961;42.640;23.380;2024-02-21T00:22:14;94645.81;;;6.14;100.00
11808;BME280;5961;42.640;23.380;2024-02-21T00:24:41;94636.94;;;6.10;100.00
11808;BME280;5961;42.640;23.380;2024-02-21T00:27:08;94641.53;;;6.18;100.00
11808;BME280;5961;42.640;23.380;2024-02-21T00:29:34;94644.75;;;6.15;100.00
11808;BME280;5961;42.640;23.380;2024-02-21T00:32:01;94647.31;;;6.20;100.00
11808;BME280;5961;42.640;23.380;2024-02-21T00:34:28;94635.19;;;6.19;100.00
11808;BME280;5961;42.640;23.380;2024-02-21T00:36:54;94640.69;;;6.22;100.00
11808;BME280;5961;42.640;23.380;2024-02-21T00:39:22;94638.47;;;6.11;100.00
11808;BME280;5961;42.640;23.380;2024-02-21T00:41:49;94619.81;;;6.07;100.00
11808;BME280;5961;42.640;23.380;2024-02-21T00:44:16;94649.03;;;6.11;100.00
11808;BME280;5961;42.640;23.380;2024-02-21T00:46:42;94638.34;;;6.02;100.00
11808;BME280;5961;42.640;23.380;2024-02-21T00:49:09;94648.06;;;6.06;100.00
11808;BME280;5961;42.640;23.380;2024-02-21T00:51:36;94630.50;;;6.16;100.00
11808;BME280;5961;42.640;23.380;2024-02-21T00:54:02;94639.25;;;6.11;100.00
11808;BME280;5961;42.640;23.380;2024-02-21T00:56:30;94641.38;;;5.95;100.00
11808;BME280;5961;42.640;23.380;2024-02-21T00:58:57;94636.09;;;5.95;100.00
11808;BME280;5961;42.640;23.380;2024-02-21T01:01:25;94634.19;;;6.01;100.00
11808;BME280;5961;42.640;23.380;2024-02-21T01:03:51;94640.38;;;5.91;100.00
11808;BME280;5961;42.640;23.380;2024-02-21T01:06:18;94614.59;;;5.88;100.00
11808;BME280;5961;42.640;23.380;2024-02-21T01:08:46;94625.47;;;6.00;100.00
11808;BME280;5961;42.640;23.380;2024-02-21T01:11:12;94611.44;;;5.86;100.00
11808;BME280;5961;42.640;23.380;2024-02-21T01:13:40;94618.13;;;5.97;100.00
11808;BME280;5961;42.640;23.380;2024-02-21T01:16:07;94603.38;;;5.96;100.00
11808;BME280;5961;42.640;23.380;2024-02-21T01:18:34;94607.00;;;6.00;100.00
11808;BME280;5961;42.640;23.380;2024-02-21T01:21:01;94603.28;;;6.01;100.00
11808;BME280;5961;42.640;23.380;2024-02-21T01:23:28;94599.56;;;6.02;100.00
11808;BME280;5961;42.640;23.380;2024-02-21T01:25:54;94598.19;;;6.05;100.00
11808;BME280;5961;42.640;23.380;2024-02-21T01:28:21;94606.75;;;6.16;100.00
11808;BME280;5961;42.640;23.380;2024-02-21T01:30:49;94600.97;;;6.14;100.00
11808;BME280;5961;42.640;23.380;2024-02-21T01:33:16;94600.38;;;6.17;100.00
11808;BME280;5961;42.640;23.380;2024-02-21T01:35:44;94602.38;;;6.25;100.00
11808;BME280;5961;42.640;23.380;2024-02-21T01:38:12;94602.16;;;6.21;100.00
11808;BME280;5961;42.640;23.380;2024-02-21T01:40:39;94598.72;;;6.21;100.00
11808;BME280;5961;42.640;23.380;2024-02-21T01:43:15;94597.56;;;6.27;100.00
11808;BME280;5961;42.640;23.380;2024-02-21T01:45:42;94602.47;;;6.33;100.00
11808;BME280;5961;42.640;23.380;2024-02-21T01:48:10;94606.88;;;6.38;100.00
11808;BME280;5961;42.640;23.380;2024-02-21T01:50:37;94593.19;;;6.36;99.91
11808;BME280;5961;42.640;23.380;2024-02-21T01:53:03;94594.47;;;6.38;99.88
11808;BME280;5961;42.640;23.380;2024-02-21T01:55:30;94595.34;;;6.34;99.44
11808;BME280;5961;42.640;23.380;2024-02-21T01:57:57;94595.72;;;6.41;99.23
11808;BME280;5961;42.640;23.380;2024-02-21T02:00:24;94590.44;;;6.41;99.18
11808;BME280;5961;42.640;23.380;2024-02-21T02:02:51;94589.97;;;6.39;99.13
11808;BME280;5961;42.640;23.380;2024-02-21T02:05:19;94591.59;;;6.35;98.97
11808;BME280;5961;42.640;23.380;2024-02-21T02:07:47;94600.63;;;6.34;98.69
11808;BME280;5961;42.640;23.380;2024-02-21T02:10:13;94591.59;;;6.35;98.07
11808;BME280;5961;42.640;23.380;2024-02-21T02:12:40;94583.41;;;6.36;98.19
11808;BME280;5961;42.640;23.380;2024-02-21T02:15:07;94580.97;;;6.40;97.32
11808;BME280;5961;42.640;23.380;2024-02-21T02:17:34;94583.81;;;6.43;97.11
11808;BME280;5961;42.640;23.380;2024-02-21T02:20:01;94591.44;;;6.45;97.11
11808;BME280;5961;42.640;23.380;2024-02-21T02:22:31;94603.75;;;6.36;96.79
11808;BME280;5961;42.640;23.380;2024-02-21T02:24:59;94597.47;;;6.32;97.41
11808;BME280;5961;42.640;23.380;2024-02-21T02:27:26;94589.06;;;6.16;98.70
11808;BME280;5961;42.640;23.380;2024-02-21T02:29:53;94593.19;;;6.22;98.65
11808;BME280;5961;42.640;23.380;2024-02-21T02:32:19;94587.69;;;6.19;99.44
11808;BME280;5961;42.640;23.380;2024-02-21T02:34:46;94581.25;;;6.25;99.48
11808;BME280;5961;42.640;23.380;2024-02-21T02:37:13;94577.13;;;6.19;99.83
11808;BME280;5961;42.640;23.380;2024-02-21T02:39:39;94575.66;;;6.26;99.30
11808;BME280;5961;42.640;23.380;2024-02-21T02:42:07;94575.97;;;6.25;99.02
11808;BME280;5961;42.640;23.380;2024-02-21T02:44:35;94578.09;;;6.23;99.38
11808;BME280;5961;42.640;23.380;2024-02-21T02:47:02;94571.19;;;6.27;98.92
11808;BME280;5961;42.640;23.380;2024-02-21T02:49:28;94578.03;;;6.28;98.27
11808;BME280;5961;42.640;23.380;2024-02-21T02:51:55;94583.69;;;6.35;98.35
11808;BME280;5961;42.640;23.380;2024-02-21T02:54:22;94579.13;;;6.40;97.96
11808;BME280;5961;42.640;23.380;2024-02-21T02:56:49;94575.91;;;6.43;98.06
11808;BME280;5961;42.640;23.380;2024-02-21T02:59:18;94578.53;;;6.43;97.68
11808;BME280;5961;42.640;23.380;2024-02-21T03:01:45;94575.59;;;6.45;97.58
11808;BME280;5961;42.640;23.380;2024-02-21T03:04:11;94577.66;;;6.48;97.33
11808;BME280;5961;42.640;23.380;2024-02-21T03:06:38;94581.25;;;6.38;97.78
11808;BME280;5961;42.640;23.380;2024-02-21T03:09:05;94575.19;;;6.38;98.15
11808;BME280;5961;42.640;23.380;2024-02-21T03:11:34;94593.69;;;6.51;97.97
11808;BME280;5961;42.640;23.380;2024-02-21T03:14:00;94598.88;;;6.43;97.72
11808;BME280;5961;42.640;23.380;2024-02-21T03:16:28;94595.25;;;6.39;98.27
11808;BME280;5961;42.640;23.380;2024-02-21T03:18:55;94593.19;;;6.36;98.20
11808;BME280;5961;42.640;23.380;2024-02-21T03:21:21;94591.59;;;6.35;98.88
11808;BME280;5961;42.640;23.380;2024-02-21T03:23:48;94598.56;;;6.31;98.97
11808;BME280;5961;42.640;23.380;2024-02-21T03:26:15;94607.66;;;6.38;98.66
11808;BME280;5961;42.640;23.380;2024-02-21T03:28:42;94601.00;;;6.41;98.60
11808;BME280;5961;42.640;23.380;2024-02-21T03:31:10;94597.09;;;6.38;98.81
11808;BME280;5961;42.640;23.380;2024-02-21T03:33:39;94612.56;;;6.45;98.40
11808;BME280;5961;42.640;23.380;2024-02-21T03:36:06;94598.28;;;6.46;97.82
11808;BME280;5961;42.640;23.380;2024-02-21T03:38:32;94609.06;;;6.49;98.05
11808;BME280;5961;42.640;23.380;2024-02-21T03:40:59;94574.22;;;6.34;97.66
11808;BME280;5961;42.640;23.380;2024-02-21T03:43:26;94608.94;;;6.54;97.58
11808;BME280;5961;42.640;23.380;2024-02-21T03:45:52;94604.06;;;6.48;97.46
11808;BME280;5961;42.640;23.380;2024-02-21T03:48:19;94608.06;;;6.59;97.08
11808;BME280;5961;42.640;23.380;2024-02-21T03:50:47;94618.25;;;6.52;97.23
11808;BME280;5961;42.640;23.380;2024-02-21T03:53:14;94620.31;;;6.55;96.56
11808;BME280;5961;42.640;23.380;2024-02-21T03:55:40;94608.66;;;6.56;96.67
11808;BME280;5961;42.640;23.380;2024-02-21T03:58:07;94612.75;;;6.48;97.39
11808;BME280;5961;42.640;23.380;2024-02-21T04:00:34;94617.25;;;6.48;97.04
11808;BME280;5961;42.640;23.380;2024-02-21T04:03:00;94615.88;;;6.37;98.00
11808;BME280;5961;42.640;23.380;2024-02-21T04:05:28;94612.81;;;6.30;98.40
11808;BME280;5961;42.640;23.380;2024-02-21T04:07:56;94611.75;;;6.31;98.88
11808;BME280;5961;42.640;23.380;2024-02-21T04:10:22;94610.66;;;6.32;98.72
11808;BME280;5961;42.640;23.380;2024-02-21T04:12:49;94611.38;;;6.37;98.37
11808;BME280;5961;42.640;23.380;2024-02-21T04:15:16;94606.88;;;6.38;98.57
11808;BME280;5961;42.640;23.380;2024-02-21T04:17:44;94598.47;;;6.36;98.38
11808;BME280;5961;42.640;23.380;2024-02-21T04:20:14;94600.94;;;6.46;97.45
11808;BME280;5961;42.640;23.380;2024-02-21T04:22:42;94598.50;;;6.49;97.64
11808;BME280;5961;42.640;23.380;2024-02-21T04:25:11;94607.47;;;6.48;97.60
11808;BME280;5961;42.640;23.380;2024-02-21T04:27:38;94603.78;;;6.49;97.34
11808;BME280;5961;42.640;23.380;2024-02-21T04:30:07;94613.81;;;6.47;97.14
11808;BME280;5961;42.640;23.380;2024-02-21T04:32:34;94614.03;;;6.51;97.46
11808;BME280;5961;42.640;23.380;2024-02-21T04:35:01;94604.16;;;6.43;97.14
11808;BME280;5961;42.640;23.380;2024-02-21T04:37:28;94572.81;;;6.23;97.34
11808;BME280;5961;42.640;23.380;2024-02-21T04:39:55;94604.81;;;6.35;97.78
11808;BME280;5961;42.640;23.380;2024-02-21T04:42:23;94604.91;;;6.30;98.09
11808;BME280;5961;42.640;23.380;2024-02-21T04:44:49;94613.13;;;6.28;98.03
11808;BME280;5961;42.640;23.380;2024-02-21T04:47:16;94618.38;;;6.15;99.03
11808;BME280;5961;42.640;23.380;2024-02-21T04:49:43;94601.84;;;6.09;99.32
11808;BME280;5961;42.640;23.380;2024-02-21T04:52:09;94605.06;;;6.20;98.67
11808;BME280;5961;42.640;23.380;2024-02-21T04:54:36;94606.56;;;6.26;98.40
11808;BME280;5961;42.640;23.380;2024-02-21T04:57:03;94597.78;;;6.30;98.33
11808;BME280;5961;42.640;23.380;2024-02-21T04:59:32;94611.97;;;6.34;97.83
11808;BME280;5961;42.640;23.380;2024-02-21T05:02:00;94610.78;;;6.27;97.76
11808;BME280;5961;42.640;23.380;2024-02-21T05:04:27;94606.38;;;6.36;97.98
11808;BME280;5961;42.640;23.380;2024-02-21T05:06:53;94610.00;;;6.40;97.80
11808;BME280;5961;42.640;23.380;2024-02-21T05:09:20;94603.16;;;6.39;97.31
11808;BME280;5961;42.640;23.380;2024-02-21T05:11:47;94606.47;;;6.31;97.13
11808;BME280;5961;42.640;23.380;2024-02-21T05:14:14;94612.34;;;6.41;97.24
11808;BME280;5961;42.640;23.380;2024-02-21T05:16:42;94619.22;;;6.42;97.28
11808;BME280;5961;42.640;23.380;2024-02-21T05:19:08;94619.41;;;6.46;96.57
11808;BME280;5961;42.640;23.380;2024-02-21T05:21:35;94621.53;;;6.44;96.23
11808;BME280;5961;42.640;23.380;2024-02-21T05:24:02;94627.41;;;6.41;96.36
11808;BME280;5961;42.640;23.380;2024-02-21T05:26:29;94627.03;;;6.47;96.77
11808;BME280;5961;42.640;23.380;2024-02-21T05:28:55;94623.53;;;6.52;96.33
11808;BME280;5961;42.640;23.380;2024-02-21T05:31:22;94631.34;;;6.57;96.38
11808;BME280;5961;42.640;23.380;2024-02-21T05:33:50;94627.66;;;6.58;96.58
11808;BME280;5961;42.640;23.380;2024-02-21T05:36:17;94628.59;;;6.62;96.05
11808;BME280;5961;42.640;23.380;2024-02-21T05:38:44;94624.63;;;6.65;95.72
11808;BME280;5961;42.640;23.380;2024-02-21T05:41:10;94629.81;;;6.70;95.68
11808;BME280;5961;42.640;23.380;2024-02-21T05:43:37;94641.06;;;6.75;95.90
11808;BME280;5961;42.640;23.380;2024-02-21T05:46:04;94638.41;;;6.75;96.15
11808;BME280;5961;42.640;23.380;2024-02-21T05:48:30;94633.59;;;6.77;96.15
11808;BME280;5961;42.640;23.380;2024-02-21T05:51:01;94629.63;;;6.80;95.86
11808;BME280;5961;42.640;23.380;2024-02-21T05:53:28;94636.66;;;6.84;95.55
11808;BME280;5961;42.640;23.380;2024-02-21T05:55:54;94640.56;;;6.87;95.35
11808;BME280;5961;42.640;23.380;2024-02-21T05:58:21;94640.47;;;6.92;95.58
11808;BME280;5961;42.640;23.380;2024-02-21T06:00:48;94641.75;;;6.94;95.13
11808;BME280;5961;42.640;23.380;2024-02-21T06:03:15;94642.72;;;6.98;94.99
11808;BME280;5961;42.640;23.380;2024-02-21T06:05:42;94643.69;;;7.02;95.00
11808;BME280;5961;42.640;23.380;2024-02-21T06:08:10;94646.53;;;7.06;95.05
11808;BME280;5961;42.640;23.380;2024-02-21T06:10:36;94652.28;;;7.08;94.76
11808;BME280;5961;42.640;23.380;2024-02-21T06:13:03;94653.88;;;7.09;94.54
11808;BME280;5961;42.640;23.380;2024-02-21T06:15:30;94659.34;;;7.12;94.95
11808;BME280;5961;42.640;23.380;2024-02-21T06:17:57;94660.91;;;7.13;94.76
11808;BME280;5961;42.640;23.380;2024-02-21T06:20:23;94665.03;;;7.06;93.70
11808;BME280;5961;42.640;23.380;2024-02-21T06:22:50;94660.25;;;6.94;93.63
11808;BME280;5961;42.640;23.380;2024-02-21T06:25:18;94671.28;;;6.96;93.56
11808;BME280;5961;42.640;23.380;2024-02-21T06:27:45;94672.94;;;6.92;92.83
11808;BME280;5961;42.640;23.380;2024-02-21T06:30:12;94667.34;;;6.80;92.65
11808;BME280;5961;42.640;23.380;2024-02-21T06:32:39;94629.47;;;6.44;92.87
11808;BME280;5961;42.640;23.380;2024-02-21T06:35:06;94674.41;;;6.71;92.02
11808;BME280;5961;42.640;23.380;2024-02-21T06:37:32;94676.53;;;6.55;93.93
11808;BME280;5961;42.640;23.380;2024-02-21T06:39:59;94675.34;;;6.48;96.20
11808;BME280;5961;42.640;23.380;2024-02-21T06:42:27;94672.28;;;6.41;96.88
11808;BME280;5961;42.640;23.380;2024-02-21T06:44:54;94677.34;;;6.24;97.48
11808;BME280;5961;42.640;23.380;2024-02-21T06:47:21;94691.69;;;6.18;97.82
11808;BME280;5961;42.640;23.380;2024-02-21T06:49:48;94681.44;;;6.16;98.64
11808;BME280;5961;42.640;23.380;2024-02-21T06:52:17;94687.34;;;6.08;99.92
11808;BME280;5961;42.640;23.380;2024-02-21T06:54:45;94692.03;;;6.11;100.00
11808;BME280;5961;42.640;23.380;2024-02-21T06:57:12;94695.78;;;6.10;99.62
11808;BME280;5961;42.640;23.380;2024-02-21T06:59:41;94697.06;;;6.13;100.00
11808;BME280;5961;42.640;23.380;2024-02-21T07:02:11;94693.31;;;6.14;100.00
11808;BME280;5961;42.640;23.380;2024-02-21T07:04:37;94689.97;;;6.08;100.00
11808;BME280;5961;42.640;23.380;2024-02-21T07:07:04;94681.44;;;5.97;100.00
11808;BME280;5961;42.640;23.380;2024-02-21T07:09:31;94688.72;;;6.05;100.00
11808;BME280;5961;42.640;23.380;2024-02-21T07:11:58;94695.25;;;6.08;100.00
11808;BME280;5961;42.640;23.380;2024-02-21T07:14:25;94695.25;;;6.08;100.00
11808;BME280;5961;42.640;23.380;2024-02-21T07:16:53;94697.09;;;6.07;100.00
11808;BME280;5961;42.640;23.380;2024-02-21T07:19:19;94684.56;;;6.18;100.00
11808;BME280;5961;42.640;23.380;2024-02-21T07:21:46;94686.81;;;6.25;100.00
11808;BME280;5961;42.640;23.380;2024-02-21T07:24:13;94695.66;;;6.34;100.00
11808;BME280;5961;42.640;23.380;2024-02-21T07:26:41;94698.53;;;6.51;100.00
11808;BME280;5961;42.640;23.380;2024-02-21T07:29:09;94697.38;;;6.57;99.03
11808;BME280;5961;42.640;23.380;2024-02-21T07:31:40;94702.50;;;6.67;97.40
11808;BME280;5961;42.640;23.380;2024-02-21T07:34:08;94698.69;;;6.73;96.93
11808;BME280;5961;42.640;23.380;2024-02-21T07:36:35;94698.84;;;6.63;95.38
11808;BME280;5961;42.640;23.380;2024-02-21T07:39:02;94708.34;;;6.78;95.05
11808;BME280;5961;42.640;23.380;2024-02-21T07:41:30;94693.78;;;6.80;95.22
11808;BME280;5961;42.640;23.380;2024-02-21T07:43:57;94691.81;;;6.72;94.86
11808;BME280;5961;42.640;23.380;2024-02-21T07:46:24;94705.25;;;6.89;94.46
11808;BME280;5961;42.640;23.380;2024-02-21T07:48:50;94699.88;;;6.94;94.46
11808;BME280;5961;42.640;23.380;2024-02-21T07:51:19;94692.81;;;6.90;94.33
11808;BME280;5961;42.640;23.380;2024-02-21T07:53:45;94695.56;;;6.98;93.85
11808;BME280;5961;42.640;23.380;2024-02-21T07:56:13;94694.97;;;7.01;93.70
11808;BME280;5961;42.640;23.380;2024-02-21T07:58:40;94695.38;;;7.08;93.58
11808;BME280;5961;42.640;23.380;2024-02-21T08:01:07;94702.59;;;7.16;93.62
11808;BME280;5961;42.640;23.380;2024-02-21T08:03:34;94661.50;;;6.97;93.18
11808;BME280;5961;42.640;23.380;2024-02-21T08:06:01;94698.19;;;7.26;92.32
11808;BME280;5961;42.640;23.380;2024-02-21T08:08:29;94700.25;;;7.29;92.28
11808;BME280;5961;42.640;23.380;2024-02-21T08:10:55;94705.34;;;7.39;92.41
11808;BME280;5961;42.640;23.380;2024-02-21T08:13:22;94683.44;;;7.25;91.80
11808;BME280;5961;42.640;23.380;2024-02-21T08:15:49;94709.47;;;7.45;91.62
11808;BME280;5961;42.640;23.380;2024-02-21T08:18:16;94692.13;;;7.39;90.99
11808;BME280;5961;42.640;23.380;2024-02-21T08:20:42;94705.75;;;7.46;90.73
11808;BME280;5961;42.640;23.380;2024-02-21T08:23:09;94699.28;;;7.52;90.77
11808;BME280;5961;42.640;23.380;2024-02-21T08:25:37;94701.81;;;7.57;90.40
11808;BME280;5961;42.640;23.380;2024-02-21T08:28:05;94701.09;;;7.65;90.05
11808;BME280;5961;42.640;23.380;2024-02-21T08:30:32;94704.44;;;7.57;89.70
11808;BME280;5961;42.640;23.380;2024-02-21T08:32:58;94672.63;;;7.48;89.77
11808;BME280;5961;42.640;23.380;2024-02-21T08:35:25;94695.53;;;7.66;89.55
11808;BME280;5961;42.640;23.380;2024-02-21T08:37:52;94692.75;;;7.71;89.26
11808;BME280;5961;42.640;23.380;2024-02-21T08:40:18;94706.97;;;7.62;89.24
11808;BME280;5961;42.640;23.380;2024-02-21T08:42:48;94699.91;;;7.71;88.73
11808;BME280;5961;42.640;23.380;2024-02-21T08:45:15;94707.81;;;7.85;87.98
11808;BME280;5961;42.640;23.380;2024-02-21T08:47:42;94697.00;;;7.95;87.94
11808;BME280;5961;42.640;23.380;2024-02-21T08:50:09;94697.19;;;7.98;87.94
11808;BME280;5961;42.640;23.380;2024-02-21T08:52:36;94697.38;;;8.02;87.21
11808;BME280;5961;42.640;23.380;2024-02-21T08:55:03;94691.81;;;8.03;86.56
11808;BME280;5961;42.640;23.380;2024-02-21T08:57:30;94696.59;;;8.01;85.91
11808;BME280;5961;42.640;23.380;2024-02-21T09:00:03;94666.50;;;7.75;85.68
11808;BME280;5961;42.640;23.380;2024-02-21T09:02:35;94699.97;;;7.93;85.67
11808;BME280;5961;42.640;23.380;2024-02-21T09:05:02;94697.50;;;7.97;85.02
11808;BME280;5961;42.640;23.380;2024-02-21T09:07:30;94702.47;;;7.98;85.48
11808;BME280;5961;42.640;23.380;2024-02-21T09:09:57;94694.84;;;7.97;85.08
11808;BME280;5961;42.640;23.380;2024-02-21T09:12:23;94698.16;;;8.02;85.32
11808;BME280;5961;42.640;23.380;2024-02-21T09:14:50;94708.75;;;8.02;84.29
11808;BME280;5961;42.640;23.380;2024-02-21T09:17:18;94708.75;;;8.02;83.69
11808;BME280;5961;42.640;23.380;2024-02-21T09:19:45;94707.56;;;8.08;83.42
11808;BME280;5961;42.640;23.380;2024-02-21T09:22:12;94696.97;;;8.08;83.84
11808;BME280;5961;42.640;23.380;2024-02-21T09:24:39;94698.16;;;8.02;84.06
11808;BME280;5961;42.640;23.380;2024-02-21T09:27:05;94702.00;;;7.96;84.48
11808;BME280;5961;42.640;23.380;2024-02-21T09:29:32;94697.59;;;7.92;83.88
11808;BME280;5961;42.640;23.380;2024-02-21T09:31:59;94693.88;;;7.93;84.23
11808;BME280;5961;42.640;23.380;2024-02-21T09:34:27;94698.09;;;7.94;85.36
11808;BME280;5961;42.640;23.380;2024-02-21T09:36:54;94699.38;;;7.96;86.29
11808;BME280;5961;42.640;23.380;2024-02-21T09:39:20;94661.41;;;7.65;87.13
11808;BME280;5961;42.640;23.380;2024-02-21T09:41:50;94692.03;;;7.93;86.91
11808;BME280;5961;42.640;23.380;2024-02-21T09:44:19;94703.59;;;7.97;86.70
11808;BME280;5961;42.640;23.380;2024-02-21T09:46:52;94714.53;;;8.04;86.18
11808;BME280;5961;42.640;23.380;2024-02-21T09:49:32;94699.31;;;8.10;85.96
11808;BME280;5961;42.640;23.380;2024-02-21T09:52:00;94686.59;;;7.98;85.98
11808;BME280;5961;42.640;23.380;2024-02-21T09:54:29;94704.78;;;8.13;84.91
11808;BME280;5961;42.640;23.380;2024-02-21T09:56:56;94694.00;;;8.10;84.96
11808;BME280;5961;42.640;23.380;2024-02-21T09:59:24;94689.88;;;8.17;86.00
11808;BME280;5961;42.640;23.380;2024-02-21T10:01:51;94677.13;;;7.97;85.94
11808;BME280;5961;42.640;23.380;2024-02-21T10:04:17;94695.41;;;8.07;85.66
11808;BME280;5961;42.640;23.380;2024-02-21T10:06:46;94705.34;;;8.24;85.07
11808;BME280;5961;42.640;23.380;2024-02-21T10:09:20;94695.13;;;8.31;84.26
11808;BME280;5961;42.640;23.380;2024-02-21T10:11:48;94688.47;;;8.34;82.96
11808;BME280;5961;42.640;23.380;2024-02-21T10:14:15;94698.16;;;8.38;81.80
11808;BME280;5961;42.640;23.380;2024-02-21T10:16:42;94693.63;;;8.39;81.75
11808;BME280;5961;42.640;23.380;2024-02-21T10:19:16;94681.59;;;8.33;81.18
11808;BME280;5961;42.640;23.380;2024-02-21T10:21:43;94686.28;;;8.36;81.16
11808;BME280;5961;42.640;23.380;2024-02-21T10:24:12;94681.47;;;8.38;80.74
11808;BME280;5961;42.640;23.380;2024-02-21T10:26:38;94681.97;;;8.40;79.99
11808;BME280;5961;42.640;23.380;2024-02-21T10:29:05;94686.06;;;8.46;80.32
11808;BME280;5961;42.640;23.380;2024-02-21T10:31:32;94684.66;;;8.48;80.48
11808;BME280;5961;42.640;23.380;2024-02-21T10:34:00;94680.63;;;8.51;79.99
11808;BME280;5961;42.640;23.380;2024-02-21T10:36:28;94654.28;;;8.46;80.56
11808;BME280;5961;42.640;23.380;2024-02-21T10:38:55;94671.75;;;8.55;81.34
11808;BME280;5961;42.640;23.380;2024-02-21T10:41:24;94664.47;;;8.61;81.06
11808;BME280;5961;42.640;23.380;2024-02-21T10:43:53;94651.56;;;8.68;80.62
11808;BME280;5961;42.640;23.380;2024-02-21T10:46:21;94646.97;;;8.82;79.92
11808;BME280;5961;42.640;23.380;2024-02-21T10:48:58;94647.13;;;8.86;78.10
11808;BME280;5961;42.640;23.380;2024-02-21T10:51:31;94644.19;;;8.87;76.51
11808;BME280;5961;42.640;23.380;2024-02-21T10:54:11;94643.28;;;9.00;77.06
11808;BME280;5961;42.640;23.380;2024-02-21T10:56:41;94636.91;;;9.10;75.64
11808;BME280;5961;42.640;23.380;2024-02-21T10:59:08;94635.66;;;9.07;76.43
11808;BME280;5961;42.640;23.380;2024-02-21T11:01:35;94628.84;;;9.15;76.06
11808;BME280;5961;42.640;23.380;2024-02-21T11:04:03;94626.81;;;9.20;76.29
11808;BME280;5961;42.640;23.380;2024-02-21T11:06:33;94627.16;;;9.27;75.29
11808;BME280;5961;42.640;23.380;2024-02-21T11:09:02;94623.91;;;9.39;72.78
11808;BME280;5961;42.640;23.380;2024-02-21T11:11:29;94619.84;;;9.42;72.22
11808;BME280;5961;42.640;23.380;2024-02-21T11:14:05;94620.78;;;9.54;71.35
11808;BME280;5961;42.640;23.380;2024-02-21T11:16:35;94605.34;;;9.56;71.61
11808;BME280;5961;42.640;23.380;2024-02-21T11:19:06;94614.09;;;9.74;71.29
11808;BME280;5961;42.640;23.380;2024-02-21T11:21:34;94608.78;;;9.91;70.10
11808;BME280;5961;42.640;23.380;2024-02-21T11:24:01;94607.97;;;10.08;69.73
11808;BME280;5961;42.640;23.380;2024-02-21T11:26:29;94599.69;;;10.26;69.99
11808;BME280;5961;42.640;23.380;2024-02-21T11:28:57;94608.44;;;10.35;67.95
11808;BME280;5961;42.640;23.380;2024-02-21T11:31:26;94601.41;;;10.31;67.32
11808;BME280;5961;42.640;23.380;2024-02-21T11:33:53;94603.13;;;10.35;67.11
11808;BME280;5961;42.640;23.380;2024-02-21T11:36:27;94579.38;;;10.22;66.77
11808;BME280;5961;42.640;23.380;2024-02-21T11:38:53;94599.06;;;10.29;65.36
11808;BME280;5961;42.640;23.380;2024-02-21T11:41:20;94595.34;;;10.30;64.78
11808;BME280;5961;42.640;23.380;2024-02-21T11:43:49;94586.56;;;10.38;65.42
11808;BME280;5961;42.640;23.380;2024-02-21T11:46:17;94577.78;;;10.38;65.28
11808;BME280;5961;42.640;23.380;2024-02-21T11:48:45;94588.47;;;10.12;64.69
11808;BME280;5961;42.640;23.380;2024-02-21T11:51:21;94589.41;;;10.16;66.13
11808;BME280;5961;42.640;23.380;2024-02-21T11:53:48;94586.28;;;10.14;66.12
11808;BME280;5961;42.640;23.380;2024-02-21T11:56:15;94577.06;;;10.03;66.45
11808;BME280;5961;42.640;23.380;2024-02-21T11:58:41;94591.28;;;9.99;66.76
11808;BME280;5961;42.640;23.380;2024-02-21T12:01:09;94565.38;;;9.78;67.30
11808;BME280;5961;42.640;23.380;2024-02-21T12:03:36;94575.53;;;9.85;67.43
11808;BME280;5961;42.640;23.380;2024-02-21T12:06:06;94566.47;;;9.69;66.95
11808;BME280;5961;42.640;23.380;2024-02-21T12:08:41;94562.88;;;9.48;66.89
11808;BME280;5961;42.640;23.380;2024-02-21T12:11:16;94568.81;;;9.62;66.85
11808;BME280;5961;42.640;23.380;2024-02-21T12:13:43;94565.53;;;9.56;66.52
11808;BME280;5961;42.640;23.380;2024-02-21T12:16:11;94583.03;;;9.49;67.45
11808;BME280;5961;42.640;23.380;2024-02-21T12:18:39;94573.66;;;9.43;67.60
11808;BME280;5961;42.640;23.380;2024-02-21T12:21:07;94562.09;;;9.38;67.27
11808;BME280;5961;42.640;23.380;2024-02-21T12:23:34;94551.16;;;9.23;67.63
11808;BME280;5961;42.640;23.380;2024-02-21T12:26:01;94525.53;;;9.10;67.69
11808;BME280;5961;42.640;23.380;2024-02-21T12:28:30;94563.34;;;9.41;68.30
11808;BME280;5961;42.640;23.380;2024-02-21T12:30:57;94568.47;;;9.37;68.06
11808;BME280;5961;42.640;23.380;2024-02-21T12:33:23;94559.28;;;9.35;68.71
11808;BME280;5961;42.640;23.380;2024-02-21T12:35:50;94556.78;;;9.30;69.33
11808;BME280;5961;42.640;23.380;2024-02-21T12:38:18;94543.81;;;9.28;70.08
11808;BME280;5961;42.640;23.380;2024-02-21T12:40:46;94541.34;;;9.23;71.06
11808;BME280;5961;42.640;23.380;2024-02-21T12:43:13;94548.97;;;9.16;71.41
11808;BME280;5961;42.640;23.380;2024-02-21T12:45:39;94549.56;;;9.13;71.58
11808;BME280;5961;42.640;23.380;2024-02-21T12:48:06;94550.53;;;9.09;69.03
11808;BME280;5961;42.640;23.380;2024-02-21T12:50:33;94542.88;;;9.07;69.52
11808;BME280;5961;42.640;23.380;2024-02-21T12:53:00;94520.50;;;8.82;70.41
11808;BME280;5961;42.640;23.380;2024-02-21T12:55:29;94579.66;;;9.00;70.81
11808;BME280;5961;42.640;23.380;2024-02-21T12:57:55;94539.41;;;8.98;70.38
11808;BME280;5961;42.640;23.380;2024-02-21T13:00:22;94538.34;;;8.99;70.63
11808;BME280;5961;42.640;23.380;2024-02-21T13:02:53;94546.44;;;9.03;70.54
11808;BME280;5961;42.640;23.380;2024-02-21T13:05:19;94531.00;;;8.96;70.66
11808;BME280;5961;42.640;23.380;2024-02-21T13:07:46;94534.28;;;9.02;70.74